sensor_id;sensor_type;location;lat;lon;timestamp;P1;durP1;ratioP1;P2;durP2;ratioP2
6121;SDS011;3091;51.506;7.672;2023-06-22T00:01:59;14.87;;;14.17;;
6121;SDS011;3091;51.506;7.672;2023-06-22T00:04:25;13.80;;;13.30;;
6121;SDS011;3091;51.506;7.672;2023-06-22T00:06:53;14.00;;;13.50;;
6121;SDS011;3091;51.506;7.672;2023-06-22T00:09:19;14.30;;;13.80;;
6121;SDS011;3091;51.506;7.672;2023-06-22T00:11:45;14.40;;;13.80;;
6121;SDS011;3091;51.506;7.672;2023-06-22T00:14:11;13.67;;;13.17;;
6121;SDS011;3091;51.506;7.672;2023-06-22T00:16:37;14.03;;;13.53;;
6121;SDS011;3091;51.506;7.672;2023-06-22T00:19:03;14.00;;;13.50;;
6121;SDS011;3091;51.506;7.672;2023-06-22T00:21:30;14.87;;;14.27;;
6121;SDS011;3091;51.506;7.672;2023-06-22T00:23:56;13.70;;;13.20;;
6121;SDS011;3091;51.506;7.672;2023-06-22T00:26:25;14.10;;;13.60;;
6121;SDS011;3091;51.506;7.672;2023-06-22T00:28:51;14.20;;;13.70;;
6121;SDS011;3091;51.506;7.672;2023-06-22T00:31:19;14.50;;;14.00;;
6121;SDS011;3091;51.506;7.672;2023-06-22T00:33:45;14.63;;;14.13;;
6121;SDS011;3091;51.506;7.672;2023-06-22T00:36:14;14.80;;;14.30;;
6121;SDS011;3091;51.506;7.672;2023-06-22T00:38:42;14.37;;;13.87;;
6121;SDS011;3091;51.506;7.672;2023-06-22T00:41:08;15.00;;;14.50;;
6121;SDS011;3091;51.506;7.672;2023-06-22T00:43:35;15.20;;;14.70;;
6121;SDS011;3091;51.506;7.672;2023-06-22T00:46:01;14.80;;;14.30;;
6121;SDS011;3091;51.506;7.672;2023-06-22T00:48:27;14.27;;;13.77;;
6121;SDS011;3091;51.506;7.672;2023-06-22T00:50:53;14.30;;;13.80;;
6121;SDS011;3091;51.506;7.672;2023-06-22T00:53:20;14.30;;;13.80;;
6121;SDS011;3091;51.506;7.672;2023-06-22T00:55:46;14.67;;;14.17;;
6121;SDS011;3091;51.506;7.672;2023-06-22T00:58:16;14.30;;;13.80;;
6121;SDS011;3091;51.506;7.672;2023-06-22T01:00:42;14.60;;;14.10;;
6121;SDS011;3091;51.506;7.672;2023-06-22T01:03:08;14.30;;;13.80;;
6121;SDS011;3091;51.506;7.672;2023-06-22T01:05:35;14.40;;;13.90;;
6121;SDS011;3091;51.506;7.672;2023-06-22T01:10:48;14.57;;;14.07;;
6121;SDS011;3091;51.506;7.672;2023-06-22T01:13:29;14.50;;;14.00;;
6121;SDS011;3091;51.506;7.672;2023-06-22T01:16:00;14.53;;;14.03;;
6121;SDS011;3091;51.506;7.672;2023-06-22T01:18:27;14.50;;;14.00;;
6121;SDS011;3091;51.506;7.672;2023-06-22T01:20:54;14.83;;;14.33;;
6121;SDS011;3091;51.506;7.672;2023-06-22T01:28:43;15.47;;;14.87;;
6121;SDS011;3091;51.506;7.672;2023-06-22T01:31:10;15.70;;;15.10;;
6121;SDS011;3091;51.506;7.672;2023-06-22T01:33:39;16.10;;;15.50;;
6121;SDS011;3091;51.506;7.672;2023-06-22T01:36:06;15.80;;;15.20;;
6121;SDS011;3091;51.506;7.672;2023-06-22T01:38:33;15.67;;;15.07;;
6121;SDS011;3091;51.506;7.672;2023-06-22T01:41:00;15.80;;;15.20;;
6121;SDS011;3091;51.506;7.672;2023-06-22T01:43:27;16.03;;;15.43;;
6121;SDS011;3091;51.506;7.672;2023-06-22T01:45:54;15.90;;;15.30;;
6121;SDS011;3091;51.506;7.672;2023-06-22T01:48:20;15.97;;;15.37;;
6121;SDS011;3091;51.506;7.672;2023-06-22T01:50:47;15.73;;;15.13;;
6121;SDS011;3091;51.506;7.672;2023-06-22T01:53:13;16.00;;;15.40;;
6121;SDS011;3091;51.506;7.672;2023-06-22T01:55:39;16.03;;;15.43;;
6121;SDS011;3091;51.506;7.672;2023-06-22T01:58:05;15.80;;;15.20;;
6121;SDS011;3091;51.506;7.672;2023-06-22T02:00:31;15.70;;;15.10;;
6121;SDS011;3091;51.506;7.672;2023-06-22T02:03:18;15.40;;;14.80;;
6121;SDS011;3091;51.506;7.672;2023-06-22T02:05:48;15.30;;;14.70;;
6121;SDS011;3091;51.506;7.672;2023-06-22T02:08:19;15.20;;;14.60;;
6121;SDS011;3091;51.506;7.672;2023-06-22T02:10:46;15.80;;;15.20;;
6121;SDS011;3091;51.506;7.672;2023-06-22T02:13:12;16.40;;;15.80;;
6121;SDS011;3091;51.506;7.672;2023-06-22T02:15:39;16.40;;;15.80;;
6121;SDS011;3091;51.506;7.672;2023-06-22T02:18:05;16.90;;;16.30;;
6121;SDS011;3091;51.506;7.672;2023-06-22T02:20:31;16.90;;;16.30;;
6121;SDS011;3091;51.506;7.672;2023-06-22T02:22:57;17.00;;;16.40;;
6121;SDS011;3091;51.506;7.672;2023-06-22T02:25:23;16.80;;;16.20;;
6121;SDS011;3091;51.506;7.672;2023-06-22T02:27:49;16.90;;;16.30;;
6121;SDS011;3091;51.506;7.672;2023-06-22T02:30:15;17.20;;;16.50;;
6121;SDS011;3091;51.506;7.672;2023-06-22T02:32:41;16.60;;;16.00;;
6121;SDS011;3091;51.506;7.672;2023-06-22T02:35:08;16.20;;;15.60;;
6121;SDS011;3091;51.506;7.672;2023-06-22T02:37:35;17.10;;;16.40;;
6121;SDS011;3091;51.506;7.672;2023-06-22T02:40:03;16.97;;;16.33;;
6121;SDS011;3091;51.506;7.672;2023-06-22T02:42:30;17.60;;;16.90;;
6121;SDS011;3091;51.506;7.672;2023-06-22T02:44:56;17.20;;;16.50;;
6121;SDS011;3091;51.506;7.672;2023-06-22T02:47:22;17.40;;;16.70;;
6121;SDS011;3091;51.506;7.672;2023-06-22T02:49:48;17.60;;;16.90;;
6121;SDS011;3091;51.506;7.672;2023-06-22T02:52:14;17.27;;;16.57;;
6121;SDS011;3091;51.506;7.672;2023-06-22T02:54:40;17.30;;;16.60;;
6121;SDS011;3091;51.506;7.672;2023-06-22T02:57:06;17.60;;;16.90;;
6121;SDS011;3091;51.506;7.672;2023-06-22T02:59:44;17.67;;;16.97;;
6121;SDS011;3091;51.506;7.672;2023-06-22T03:02:10;17.50;;;16.80;;
6121;SDS011;3091;51.506;7.672;2023-06-22T03:04:36;17.70;;;17.00;;
6121;SDS011;3091;51.506;7.672;2023-06-22T03:07:02;17.60;;;16.90;;
6121;SDS011;3091;51.506;7.672;2023-06-22T03:09:30;17.50;;;16.80;;
6121;SDS011;3091;51.506;7.672;2023-06-22T03:11:57;17.90;;;17.20;;
6121;SDS011;3091;51.506;7.672;2023-06-22T03:14:23;17.80;;;17.10;;
6121;SDS011;3091;51.506;7.672;2023-06-22T03:16:49;17.70;;;17.00;;
6121;SDS011;3091;51.506;7.672;2023-06-22T03:19:15;17.80;;;17.10;;
6121;SDS011;3091;51.506;7.672;2023-06-22T03:21:41;17.17;;;16.47;;
6121;SDS011;3091;51.506;7.672;2023-06-22T03:24:07;17.40;;;16.70;;
6121;SDS011;3091;51.506;7.672;2023-06-22T03:26:34;17.50;;;16.80;;
6121;SDS011;3091;51.506;7.672;2023-06-22T03:29:00;17.90;;;17.20;;
6121;SDS011;3091;51.506;7.672;2023-06-22T03:31:26;17.40;;;16.70;;
6121;SDS011;3091;51.506;7.672;2023-06-22T03:33:55;17.80;;;17.10;;
6121;SDS011;3091;51.506;7.672;2023-06-22T03:36:21;17.70;;;17.00;;
6121;SDS011;3091;51.506;7.672;2023-06-22T03:38:50;19.33;;;18.07;;
6121;SDS011;3091;51.506;7.672;2023-06-22T03:41:16;18.10;;;17.40;;
6121;SDS011;3091;51.506;7.672;2023-06-22T03:43:42;17.80;;;17.10;;
6121;SDS011;3091;51.506;7.672;2023-06-22T03:46:08;18.20;;;17.50;;
6121;SDS011;3091;51.506;7.672;2023-06-22T03:48:37;18.10;;;17.40;;
6121;SDS011;3091;51.506;7.672;2023-06-22T03:51:03;17.83;;;17.13;;
6121;SDS011;3091;51.506;7.672;2023-06-22T03:53:29;17.57;;;16.87;;
6121;SDS011;3091;51.506;7.672;2023-06-22T03:55:55;17.00;;;16.40;;
6121;SDS011;3091;51.506;7.672;2023-06-22T03:58:22;17.00;;;16.40;;
6121;SDS011;3091;51.506;7.672;2023-06-22T04:00:48;16.77;;;16.17;;
6121;SDS011;3091;51.506;7.672;2023-06-22T04:03:15;16.80;;;16.20;;
6121;SDS011;3091;51.506;7.672;2023-06-22T04:05:43;17.40;;;16.70;;
6121;SDS011;3091;51.506;7.672;2023-06-22T04:08:09;17.30;;;16.60;;
6121;SDS011;3091;51.506;7.672;2023-06-22T04:10:35;16.70;;;16.00;;
6121;SDS011;3091;51.506;7.672;2023-06-22T04:13:01;16.70;;;16.10;;
6121;SDS011;3091;51.506;7.672;2023-06-22T04:15:27;17.13;;;16.43;;
6121;SDS011;3091;51.506;7.672;2023-06-22T04:17:56;15.87;;;15.27;;
6121;SDS011;3091;51.506;7.672;2023-06-22T04:20:22;16.17;;;15.47;;
6121;SDS011;3091;51.506;7.672;2023-06-22T04:22:53;15.40;;;14.80;;
6121;SDS011;3091;51.506;7.672;2023-06-22T04:25:19;15.57;;;14.97;;
6121;SDS011;3091;51.506;7.672;2023-06-22T04:27:45;17.40;;;16.70;;
6121;SDS011;3091;51.506;7.672;2023-06-22T04:30:11;15.70;;;15.10;;
6121;SDS011;3091;51.506;7.672;2023-06-22T04:32:40;15.90;;;15.30;;
6121;SDS011;3091;51.506;7.672;2023-06-22T04:35:06;16.23;;;15.50;;
6121;SDS011;3091;51.506;7.672;2023-06-22T04:37:33;15.87;;;15.27;;
6121;SDS011;3091;51.506;7.672;2023-06-22T04:39:59;15.70;;;15.10;;
6121;SDS011;3091;51.506;7.672;2023-06-22T04:42:28;15.40;;;14.80;;
6121;SDS011;3091;51.506;7.672;2023-06-22T04:44:55;14.73;;;14.23;;
6121;SDS011;3091;51.506;7.672;2023-06-22T04:47:21;14.40;;;13.90;;
6121;SDS011;3091;51.506;7.672;2023-06-22T04:49:47;14.30;;;13.80;;
6121;SDS011;3091;51.506;7.672;2023-06-22T04:52:13;14.30;;;13.80;;
6121;SDS011;3091;51.506;7.672;2023-06-22T04:54:45;14.13;;;13.63;;
6121;SDS011;3091;51.506;7.672;2023-06-22T04:57:15;14.40;;;13.90;;
6121;SDS011;3091;51.506;7.672;2023-06-22T04:59:41;14.40;;;13.90;;
6121;SDS011;3091;51.506;7.672;2023-06-22T05:02:08;14.30;;;13.80;;
6121;SDS011;3091;51.506;7.672;2023-06-22T05:04:34;16.00;;;15.10;;
6121;SDS011;3091;51.506;7.672;2023-06-22T05:07:11;17.00;;;16.30;;
6121;SDS011;3091;51.506;7.672;2023-06-22T05:09:37;16.20;;;15.60;;
6121;SDS011;3091;51.506;7.672;2023-06-22T05:12:03;16.67;;;15.97;;
6121;SDS011;3091;51.506;7.672;2023-06-22T05:14:29;22.70;;;21.50;;
6121;SDS011;3091;51.506;7.672;2023-06-22T05:16:55;20.13;;;19.13;;
6121;SDS011;3091;51.506;7.672;2023-06-22T05:19:23;31.20;;;29.47;;
6121;SDS011;3091;51.506;7.672;2023-06-22T05:21:50;44.60;;;42.10;;
6121;SDS011;3091;51.506;7.672;2023-06-22T05:24:16;84.70;;;80.30;;
6121;SDS011;3091;51.506;7.672;2023-06-22T05:26:44;155.40;;;148.60;;
6121;SDS011;3091;51.506;7.672;2023-06-22T05:29:10;227.93;;;218.93;;
6121;SDS011;3091;51.506;7.672;2023-06-22T05:31:36;219.70;;;209.67;;
6121;SDS011;3091;51.506;7.672;2023-06-22T05:34:02;263.27;;;252.50;;
6121;SDS011;3091;51.506;7.672;2023-06-22T05:36:28;261.90;;;251.17;;
6121;SDS011;3091;51.506;7.672;2023-06-22T05:38:56;237.20;;;226.93;;
6121;SDS011;3091;51.506;7.672;2023-06-22T05:41:23;219.40;;;209.50;;
6121;SDS011;3091;51.506;7.672;2023-06-22T05:43:49;221.63;;;211.57;;
6121;SDS011;3091;51.506;7.672;2023-06-22T05:46:15;219.80;;;209.63;;
6121;SDS011;3091;51.506;7.672;2023-06-22T05:48:42;218.53;;;208.40;;
6121;SDS011;3091;51.506;7.672;2023-06-22T05:51:08;206.87;;;197.17;;
6121;SDS011;3091;51.506;7.672;2023-06-22T05:53:34;211.70;;;201.83;;
6121;SDS011;3091;51.506;7.672;2023-06-22T05:56:00;212.70;;;202.70;;
6121;SDS011;3091;51.506;7.672;2023-06-22T05:58:26;219.70;;;209.50;;
6121;SDS011;3091;51.506;7.672;2023-06-22T06:00:52;215.60;;;205.67;;
6121;SDS011;3091;51.506;7.672;2023-06-22T06:03:20;222.40;;;212.20;;
6121;SDS011;3091;51.506;7.672;2023-06-22T06:05:46;216.57;;;206.60;;
6121;SDS011;3091;51.506;7.672;2023-06-22T06:08:12;219.10;;;209.20;;
6121;SDS011;3091;51.506;7.672;2023-06-22T06:10:38;233.83;;;223.37;;
6121;SDS011;3091;51.506;7.672;2023-06-22T06:13:04;232.20;;;221.80;;
6121;SDS011;3091;51.506;7.672;2023-06-22T06:15:31;224.97;;;214.87;;
6121;SDS011;3091;51.506;7.672;2023-06-22T06:17:57;222.90;;;212.90;;
6121;SDS011;3091;51.506;7.672;2023-06-22T06:20:24;218.17;;;208.27;;
6121;SDS011;3091;51.506;7.672;2023-06-22T06:22:51;223.43;;;213.33;;
6121;SDS011;3091;51.506;7.672;2023-06-22T06:25:17;225.30;;;215.30;;
6121;SDS011;3091;51.506;7.672;2023-06-22T06:27:47;224.50;;;214.50;;
6121;SDS011;3091;51.506;7.672;2023-06-22T06:30:14;212.57;;;202.97;;
6121;SDS011;3091;51.506;7.672;2023-06-22T06:32:40;212.07;;;202.47;;
6121;SDS011;3091;51.506;7.672;2023-06-22T06:35:07;204.93;;;195.43;;
6121;SDS011;3091;51.506;7.672;2023-06-22T06:37:37;230.27;;;220.10;;
6121;SDS011;3091;51.506;7.672;2023-06-22T06:40:03;240.03;;;229.53;;
6121;SDS011;3091;51.506;7.672;2023-06-22T06:42:42;239.10;;;228.60;;
6121;SDS011;3091;51.506;7.672;2023-06-22T06:45:14;236.17;;;225.87;;
6121;SDS011;3091;51.506;7.672;2023-06-22T06:47:40;235.50;;;225.30;;
6121;SDS011;3091;51.506;7.672;2023-06-22T06:50:07;217.10;;;207.60;;
6121;SDS011;3091;51.506;7.672;2023-06-22T06:52:35;230.80;;;221.00;;
6121;SDS011;3091;51.506;7.672;2023-06-22T06:55:01;247.10;;;237.30;;
6121;SDS011;3091;51.506;7.672;2023-06-22T06:57:29;226.33;;;217.43;;
6121;SDS011;3091;51.506;7.672;2023-06-22T06:59:55;186.20;;;178.80;;
6121;SDS011;3091;51.506;7.672;2023-06-22T07:02:22;164.50;;;157.90;;
6121;SDS011;3091;51.506;7.672;2023-06-22T07:04:48;121.73;;;116.83;;
6121;SDS011;3091;51.506;7.672;2023-06-22T07:07:14;86.83;;;83.13;;
6121;SDS011;3091;51.506;7.672;2023-06-22T07:09:40;67.23;;;64.23;;
6121;SDS011;3091;51.506;7.672;2023-06-22T07:12:07;55.57;;;52.70;;
6121;SDS011;3091;51.506;7.672;2023-06-22T07:14:33;44.77;;;42.87;;
6121;SDS011;3091;51.506;7.672;2023-06-22T07:16:59;41.83;;;40.03;;
6121;SDS011;3091;51.506;7.672;2023-06-22T07:19:25;29.27;;;28.07;;
6121;SDS011;3091;51.506;7.672;2023-06-22T07:21:52;20.67;;;19.87;;
6121;SDS011;3091;51.506;7.672;2023-06-22T07:24:18;18.90;;;18.00;;
6121;SDS011;3091;51.506;7.672;2023-06-22T07:26:45;17.80;;;17.10;;
6121;SDS011;3091;51.506;7.672;2023-06-22T07:29:11;18.53;;;17.83;;
6121;SDS011;3091;51.506;7.672;2023-06-22T07:31:38;17.30;;;16.60;;
6121;SDS011;3091;51.506;7.672;2023-06-22T07:34:08;17.60;;;16.90;;
6121;SDS011;3091;51.506;7.672;2023-06-22T07:36:34;17.53;;;16.83;;
6121;SDS011;3091;51.506;7.672;2023-06-22T07:39:01;16.47;;;15.87;;
6121;SDS011;3091;51.506;7.672;2023-06-22T07:41:28;17.20;;;16.50;;
6121;SDS011;3091;51.506;7.672;2023-06-22T07:43:54;15.97;;;15.37;;
6121;SDS011;3091;51.506;7.672;2023-06-22T07:46:20;15.50;;;14.90;;
6121;SDS011;3091;51.506;7.672;2023-06-22T07:48:46;15.07;;;14.57;;
6121;SDS011;3091;51.506;7.672;2023-06-22T07:51:12;15.40;;;14.80;;
6121;SDS011;3091;51.506;7.672;2023-06-22T07:53:40;18.10;;;17.30;;
6121;SDS011;3091;51.506;7.672;2023-06-22T07:56:06;15.37;;;14.80;;
6121;SDS011;3091;51.506;7.672;2023-06-22T07:58:32;16.87;;;16.17;;
6121;SDS011;3091;51.506;7.672;2023-06-22T08:00:59;14.37;;;13.87;;
6121;SDS011;3091;51.506;7.672;2023-06-22T08:03:25;15.90;;;15.20;;
6121;SDS011;3091;51.506;7.672;2023-06-22T08:05:51;13.77;;;13.27;;
6121;SDS011;3091;51.506;7.672;2023-06-22T08:08:17;13.90;;;13.40;;
6121;SDS011;3091;51.506;7.672;2023-06-22T08:10:43;14.17;;;13.67;;
6121;SDS011;3091;51.506;7.672;2023-06-22T08:13:09;14.80;;;14.20;;
6121;SDS011;3091;51.506;7.672;2023-06-22T08:15:35;13.83;;;13.33;;
6121;SDS011;3091;51.506;7.672;2023-06-22T08:18:01;14.40;;;13.90;;
6121;SDS011;3091;51.506;7.672;2023-06-22T08:20:28;15.07;;;14.47;;
6121;SDS011;3091;51.506;7.672;2023-06-22T08:22:55;13.43;;;12.93;;
6121;SDS011;3091;51.506;7.672;2023-06-22T08:25:22;15.60;;;14.77;;
6121;SDS011;3091;51.506;7.672;2023-06-22T08:27:49;14.00;;;13.47;;
6121;SDS011;3091;51.506;7.672;2023-06-22T08:30:15;13.03;;;12.63;;
6121;SDS011;3091;51.506;7.672;2023-06-22T08:32:42;13.00;;;12.60;;
6121;SDS011;3091;51.506;7.672;2023-06-22T08:35:08;14.73;;;14.13;;
6121;SDS011;3091;51.506;7.672;2023-06-22T08:37:34;13.63;;;13.13;;
6121;SDS011;3091;51.506;7.672;2023-06-22T08:40:01;17.80;;;16.73;;
6121;SDS011;3091;51.506;7.672;2023-06-22T08:42:33;15.10;;;14.40;;
6121;SDS011;3091;51.506;7.672;2023-06-22T08:44:59;13.40;;;12.90;;
6121;SDS011;3091;51.506;7.672;2023-06-22T08:47:25;13.80;;;13.30;;
6121;SDS011;3091;51.506;7.672;2023-06-22T08:49:51;14.40;;;13.90;;
6121;SDS011;3091;51.506;7.672;2023-06-22T08:52:17;13.83;;;13.33;;
6121;SDS011;3091;51.506;7.672;2023-06-22T08:54:45;14.27;;;13.77;;
6121;SDS011;3091;51.506;7.672;2023-06-22T08:57:11;16.00;;;15.30;;
6121;SDS011;3091;51.506;7.672;2023-06-22T08:59:37;15.90;;;15.20;;
6121;SDS011;3091;51.506;7.672;2023-06-22T09:02:03;13.63;;;13.13;;
6121;SDS011;3091;51.506;7.672;2023-06-22T09:04:29;15.87;;;15.27;;
6121;SDS011;3091;51.506;7.672;2023-06-22T09:06:59;15.00;;;14.40;;
6121;SDS011;3091;51.506;7.672;2023-06-22T09:09:25;15.50;;;14.63;;
6121;SDS011;3091;51.506;7.672;2023-06-22T09:11:51;16.30;;;15.50;;
6121;SDS011;3091;51.506;7.672;2023-06-22T09:14:17;13.70;;;13.20;;
6121;SDS011;3091;51.506;7.672;2023-06-22T09:16:43;14.07;;;13.57;;
6121;SDS011;3091;51.506;7.672;2023-06-22T09:19:10;13.60;;;13.10;;
6121;SDS011;3091;51.506;7.672;2023-06-22T09:21:38;14.93;;;14.33;;
6121;SDS011;3091;51.506;7.672;2023-06-22T09:24:05;14.50;;;13.90;;
6121;SDS011;3091;51.506;7.672;2023-06-22T09:26:31;14.53;;;13.83;;
6121;SDS011;3091;51.506;7.672;2023-06-22T09:28:57;14.70;;;14.00;;
6121;SDS011;3091;51.506;7.672;2023-06-22T09:31:23;14.70;;;14.10;;
6121;SDS011;3091;51.506;7.672;2023-06-22T09:33:55;14.13;;;13.63;;
6121;SDS011;3091;51.506;7.672;2023-06-22T09:36:21;13.90;;;13.40;;
6121;SDS011;3091;51.506;7.672;2023-06-22T09:38:47;14.90;;;14.30;;
6121;SDS011;3091;51.506;7.672;2023-06-22T09:41:15;15.77;;;14.97;;
6121;SDS011;3091;51.506;7.672;2023-06-22T09:43:41;13.90;;;13.40;;
6121;SDS011;3091;51.506;7.672;2023-06-22T09:46:07;15.20;;;14.53;;
6121;SDS011;3091;51.506;7.672;2023-06-22T09:48:36;13.97;;;13.47;;
6121;SDS011;3091;51.506;7.672;2023-06-22T09:51:02;13.50;;;13.00;;
6121;SDS011;3091;51.506;7.672;2023-06-22T09:53:28;14.63;;;14.03;;
6121;SDS011;3091;51.506;7.672;2023-06-22T09:55:54;13.53;;;13.03;;
6121;SDS011;3091;51.506;7.672;2023-06-22T09:58:20;15.70;;;15.00;;
6121;SDS011;3091;51.506;7.672;2023-06-22T10:00:46;14.33;;;13.83;;
6121;SDS011;3091;51.506;7.672;2023-06-22T10:03:12;16.13;;;15.43;;
6121;SDS011;3091;51.506;7.672;2023-06-22T10:05:39;14.00;;;13.40;;
6121;SDS011;3091;51.506;7.672;2023-06-22T10:08:05;14.83;;;14.23;;
6121;SDS011;3091;51.506;7.672;2023-06-22T10:10:33;15.40;;;14.77;;
6121;SDS011;3091;51.506;7.672;2023-06-22T10:13:02;14.07;;;13.57;;
6121;SDS011;3091;51.506;7.672;2023-06-22T10:15:28;14.47;;;13.93;;
6121;SDS011;3091;51.506;7.672;2023-06-22T10:17:54;14.73;;;14.13;;
6121;SDS011;3091;51.506;7.672;2023-06-22T10:20:20;15.80;;;14.80;;
6121;SDS011;3091;51.506;7.672;2023-06-22T10:22:47;13.60;;;13.00;;
6121;SDS011;3091;51.506;7.672;2023-06-22T10:25:13;15.07;;;14.40;;
6121;SDS011;3091;51.506;7.672;2023-06-22T10:27:39;15.27;;;14.57;;
6121;SDS011;3091;51.506;7.672;2023-06-22T10:30:08;15.03;;;14.43;;
6121;SDS011;3091;51.506;7.672;2023-06-22T10:32:35;14.10;;;13.50;;
6121;SDS011;3091;51.506;7.672;2023-06-22T10:35:01;15.60;;;14.90;;
6121;SDS011;3091;51.506;7.672;2023-06-22T10:37:30;13.07;;;12.60;;
6121;SDS011;3091;51.506;7.672;2023-06-22T10:39:56;14.83;;;14.13;;
6121;SDS011;3091;51.506;7.672;2023-06-22T10:42:23;13.60;;;13.10;;
6121;SDS011;3091;51.506;7.672;2023-06-22T10:44:49;14.00;;;13.50;;
6121;SDS011;3091;51.506;7.672;2023-06-22T10:47:15;14.60;;;14.00;;
6121;SDS011;3091;51.506;7.672;2023-06-22T10:49:41;17.30;;;16.60;;
6121;SDS011;3091;51.506;7.672;2023-06-22T10:52:10;15.90;;;15.20;;
6121;SDS011;3091;51.506;7.672;2023-06-22T10:54:36;15.70;;;15.00;;
6121;SDS011;3091;51.506;7.672;2023-06-22T10:57:02;14.67;;;13.97;;
6121;SDS011;3091;51.506;7.672;2023-06-22T10:59:28;14.80;;;14.20;;
6121;SDS011;3091;51.506;7.672;2023-06-22T11:01:55;13.23;;;12.73;;
6121;SDS011;3091;51.506;7.672;2023-06-22T11:04:21;13.60;;;13.10;;
6121;SDS011;3091;51.506;7.672;2023-06-22T11:06:48;15.53;;;14.90;;
6121;SDS011;3091;51.506;7.672;2023-06-22T11:09:14;14.80;;;14.30;;
6121;SDS011;3091;51.506;7.672;2023-06-22T11:11:46;16.27;;;15.57;;
6121;SDS011;3091;51.506;7.672;2023-06-22T11:14:13;13.60;;;13.10;;
6121;SDS011;3091;51.506;7.672;2023-06-22T11:16:39;14.90;;;14.40;;
6121;SDS011;3091;51.506;7.672;2023-06-22T11:19:05;14.93;;;14.40;;
6121;SDS011;3091;51.506;7.672;2023-06-22T11:21:31;16.50;;;15.80;;
6121;SDS011;3091;51.506;7.672;2023-06-22T11:23:58;16.00;;;15.40;;
6121;SDS011;3091;51.506;7.672;2023-06-22T11:26:26;39.70;;;37.47;;
6121;SDS011;3091;51.506;7.672;2023-06-22T11:28:52;70.57;;;66.47;;
6121;SDS011;3091;51.506;7.672;2023-06-22T11:31:18;152.90;;;146.60;;
6121;SDS011;3091;51.506;7.672;2023-06-22T11:33:45;209.20;;;201.10;;
6121;SDS011;3091;51.506;7.672;2023-06-22T11:36:12;228.90;;;219.90;;
6121;SDS011;3091;51.506;7.672;2023-06-22T11:38:38;240.93;;;231.43;;
6121;SDS011;3091;51.506;7.672;2023-06-22T11:41:07;264.27;;;253.77;;
6121;SDS011;3091;51.506;7.672;2023-06-22T11:43:33;274.07;;;263.27;;
6121;SDS011;3091;51.506;7.672;2023-06-22T11:46:01;256.20;;;245.80;;
6121;SDS011;3091;51.506;7.672;2023-06-22T11:48:27;267.40;;;256.50;;
6121;SDS011;3091;51.506;7.672;2023-06-22T11:50:53;292.20;;;280.30;;
6121;SDS011;3091;51.506;7.672;2023-06-22T11:53:20;252.07;;;241.47;;
6121;SDS011;3091;51.506;7.672;2023-06-22T11:55:47;237.17;;;226.87;;
6121;SDS011;3091;51.506;7.672;2023-06-22T11:58:14;238.10;;;227.50;;
6121;SDS011;3091;51.506;7.672;2023-06-22T12:00:40;229.70;;;218.13;;
6121;SDS011;3091;51.506;7.672;2023-06-22T12:03:06;237.90;;;227.40;;
6121;SDS011;3091;51.506;7.672;2023-06-22T12:05:32;204.17;;;194.43;;
6121;SDS011;3091;51.506;7.672;2023-06-22T12:07:59;227.70;;;217.40;;
6121;SDS011;3091;51.506;7.672;2023-06-22T12:10:25;214.93;;;204.80;;
6121;SDS011;3091;51.506;7.672;2023-06-22T12:12:53;197.77;;;188.17;;
6121;SDS011;3091;51.506;7.672;2023-06-22T12:15:19;194.13;;;184.63;;
6121;SDS011;3091;51.506;7.672;2023-06-22T12:17:45;183.80;;;174.70;;
6121;SDS011;3091;51.506;7.672;2023-06-22T12:20:13;171.07;;;162.23;;
6121;SDS011;3091;51.506;7.672;2023-06-22T12:22:41;164.60;;;156.10;;
6121;SDS011;3091;51.506;7.672;2023-06-22T12:25:08;158.00;;;149.80;;
6121;SDS011;3091;51.506;7.672;2023-06-22T12:27:34;154.67;;;146.77;;
6121;SDS011;3091;51.506;7.672;2023-06-22T12:30:00;142.00;;;134.60;;
6121;SDS011;3091;51.506;7.672;2023-06-22T12:32:26;126.13;;;119.23;;
6121;SDS011;3091;51.506;7.672;2023-06-22T12:34:53;120.70;;;114.00;;
6121;SDS011;3091;51.506;7.672;2023-06-22T12:37:21;119.00;;;112.30;;
6121;SDS011;3091;51.506;7.672;2023-06-22T12:39:47;124.13;;;117.43;;
6121;SDS011;3091;51.506;7.672;2023-06-22T12:42:16;112.40;;;106.30;;
6121;SDS011;3091;51.506;7.672;2023-06-22T12:44:42;104.63;;;98.70;;
6121;SDS011;3091;51.506;7.672;2023-06-22T12:47:08;100.83;;;95.13;;
6121;SDS011;3091;51.506;7.672;2023-06-22T12:49:35;91.00;;;85.70;;
6121;SDS011;3091;51.506;7.672;2023-06-22T12:52:01;90.30;;;85.10;;
6121;SDS011;3091;51.506;7.672;2023-06-22T12:54:27;74.43;;;69.73;;
6121;SDS011;3091;51.506;7.672;2023-06-22T12:56:54;77.00;;;72.20;;
6121;SDS011;3091;51.506;7.672;2023-06-22T12:59:20;72.47;;;67.87;;
6121;SDS011;3091;51.506;7.672;2023-06-22T13:01:46;72.63;;;67.80;;
6121;SDS011;3091;51.506;7.672;2023-06-22T13:04:13;81.43;;;76.43;;
6121;SDS011;3091;51.506;7.672;2023-06-22T13:06:42;92.03;;;86.73;;
6121;SDS011;3091;51.506;7.672;2023-06-22T13:09:12;91.40;;;86.00;;
6121;SDS011;3091;51.506;7.672;2023-06-22T13:11:38;113.63;;;107.43;;
6121;SDS011;3091;51.506;7.672;2023-06-22T13:14:04;113.27;;;107.17;;
6121;SDS011;3091;51.506;7.672;2023-06-22T13:16:30;105.80;;;99.93;;
6121;SDS011;3091;51.506;7.672;2023-06-22T13:18:56;110.33;;;104.83;;
6121;SDS011;3091;51.506;7.672;2023-06-22T13:21:25;91.87;;;87.17;;
6121;SDS011;3091;51.506;7.672;2023-06-22T13:23:51;84.90;;;80.60;;
6121;SDS011;3091;51.506;7.672;2023-06-22T13:26:17;99.73;;;95.17;;
6121;SDS011;3091;51.506;7.672;2023-06-22T13:28:43;88.10;;;84.20;;
6121;SDS011;3091;51.506;7.672;2023-06-22T13:31:09;69.17;;;65.97;;
6121;SDS011;3091;51.506;7.672;2023-06-22T13:33:35;59.13;;;56.30;;
6121;SDS011;3091;51.506;7.672;2023-06-22T13:36:01;55.57;;;52.97;;
6121;SDS011;3091;51.506;7.672;2023-06-22T13:38:28;48.57;;;46.37;;
6121;SDS011;3091;51.506;7.672;2023-06-22T13:40:55;40.67;;;38.77;;
6121;SDS011;3091;51.506;7.672;2023-06-22T13:43:23;33.77;;;32.17;;
6121;SDS011;3091;51.506;7.672;2023-06-22T13:45:49;24.50;;;23.20;;
6121;SDS011;3091;51.506;7.672;2023-06-22T13:48:15;22.03;;;20.93;;
6121;SDS011;3091;51.506;7.672;2023-06-22T13:50:41;19.30;;;18.30;;
6121;SDS011;3091;51.506;7.672;2023-06-22T13:53:07;18.20;;;17.20;;
6121;SDS011;3091;51.506;7.672;2023-06-22T13:55:33;15.70;;;15.10;;
6121;SDS011;3091;51.506;7.672;2023-06-22T13:57:59;16.00;;;15.23;;
6121;SDS011;3091;51.506;7.672;2023-06-22T14:00:25;14.93;;;14.43;;
6121;SDS011;3091;51.506;7.672;2023-06-22T14:02:52;19.17;;;18.23;;
6121;SDS011;3091;51.506;7.672;2023-06-22T14:05:19;17.50;;;16.60;;
6121;SDS011;3091;51.506;7.672;2023-06-22T14:07:45;15.63;;;15.03;;
6121;SDS011;3091;51.506;7.672;2023-06-22T14:10:11;15.77;;;15.17;;
6121;SDS011;3091;51.506;7.672;2023-06-22T14:12:37;18.30;;;17.47;;
6121;SDS011;3091;51.506;7.672;2023-06-22T14:15:06;17.73;;;17.00;;
6121;SDS011;3091;51.506;7.672;2023-06-22T14:17:32;18.77;;;17.87;;
6121;SDS011;3091;51.506;7.672;2023-06-22T14:20:01;15.93;;;15.33;;
6121;SDS011;3091;51.506;7.672;2023-06-22T14:22:29;15.70;;;15.10;;
6121;SDS011;3091;51.506;7.672;2023-06-22T14:24:55;18.13;;;17.27;;
6121;SDS011;3091;51.506;7.672;2023-06-22T14:27:23;17.73;;;16.80;;
6121;SDS011;3091;51.506;7.672;2023-06-22T14:29:49;14.83;;;14.23;;
6121;SDS011;3091;51.506;7.672;2023-06-22T14:32:15;20.00;;;19.00;;
6121;SDS011;3091;51.506;7.672;2023-06-22T14:34:41;15.23;;;14.60;;
6121;SDS011;3091;51.506;7.672;2023-06-22T14:37:08;14.77;;;14.17;;
6121;SDS011;3091;51.506;7.672;2023-06-22T14:39:38;16.37;;;15.67;;
6121;SDS011;3091;51.506;7.672;2023-06-22T14:42:04;14.77;;;14.17;;
6121;SDS011;3091;51.506;7.672;2023-06-22T14:44:33;17.37;;;16.57;;
6121;SDS011;3091;51.506;7.672;2023-06-22T14:47:00;20.37;;;19.20;;
6121;SDS011;3091;51.506;7.672;2023-06-22T14:49:26;16.60;;;16.00;;